Time;durP1;ratioP1;P1;durP2;ratioP2;P2;SDS_P1;SDS_P2;PMS_P1;PMS_P2;Temp;Humidity;BMP_temperature;BMP_pressure;BME280_temperature;BME280_humidity;BME280_pressure;Samples;Min_cycle;Max_cycle;Signal;HPM_P1;HPM_P2
2023/07/26 00:00:11;;;;;;;4.87;2.53;;;;;;;-145.18;100.00;46642.81;5070597;28;20510;-64
2023/07/26 00:02:36;;;;;;;4.07;2.60;;;;;;;-145.18;100.00;46644.78;5069146;28;20515;-64
2023/07/26 00:05:02;;;;;;;3.27;2.50;;;;;;;-145.18;100.00;46646.72;5069253;28;20028;-64
2023/07/26 00:07:27;;;;;;;3.40;2.70;;;;;;;-145.18;100.00;46646.72;5052388;28;20437;-64
2023/07/26 00:09:52;;;;;;;5.17;2.30;;;;;;;-145.18;100.00;46642.81;5068760;28;20040;-64
2023/07/26 00:12:18;;;;;;;5.10;2.77;;;;;;;-145.18;100.00;46640.88;5068717;28;20038;-64
2023/07/26 00:14:43;;;;;;;4.53;2.93;;;;;;;-145.18;100.00;46644.78;5068801;28;20043;-64
2023/07/26 00:17:08;;;;;;;4.27;2.70;;;;;;;-145.18;100.00;46642.81;5070354;28;20025;-64
2023/07/26 00:19:34;;;;;;;3.87;2.67;;;;;;;-145.18;100.00;46644.78;5069984;28;20016;-64
2023/07/26 00:21:59;;;;;;;2.47;2.17;;;;;;;-145.18;100.00;46640.88;5069845;28;20028;-64
2023/07/26 00:24:25;;;;;;;3.83;2.50;;;;;;;-145.18;100.00;46646.72;5070296;28;20056;-64
2023/07/26 00:26:50;;;;;;;3.07;2.50;;;;;;;-145.18;100.00;46642.81;5069802;28;20531;-63
2023/07/26 00:29:15;;;;;;;5.30;2.63;;;;;;;-145.18;100.00;46646.72;5051884;28;20120;-64
2023/07/26 00:31:41;;;;;;;5.13;2.60;;;;;;;-145.18;100.00;46644.78;5070095;28;20059;-64
2023/07/26 00:34:06;;;;;;;2.70;2.17;;;;;;;-145.18;100.00;46642.81;5069803;28;20059;-64
2023/07/26 00:36:32;;;;;;;2.97;2.13;;;;;;;-145.18;100.00;46636.94;5069657;28;20144;-64
2023/07/26 00:38:57;;;;;;;3.03;2.37;;;;;;;-145.18;100.00;46642.81;5069813;28;20024;-64
2023/07/26 00:41:22;;;;;;;3.40;2.40;;;;;;;-145.18;100.00;46646.72;5069848;28;20036;-64
2023/07/26 00:43:48;;;;;;;5.07;2.73;;;;;;;-145.18;100.00;46644.78;5069628;28;20034;-64
2023/07/26 00:46:13;;;;;;;4.07;2.60;;;;;;;-145.18;100.00;46642.81;5069749;28;20032;-64
2023/07/26 00:48:39;;;;;;;3.23;2.20;;;;;;;-145.18;100.00;46642.81;5069967;28;20071;-63
2023/07/26 00:51:04;;;;;;;2.77;2.20;;;;;;;-145.18;100.00;46648.69;5069783;28;20032;-64
2023/07/26 00:53:31;;;;;;;6.47;2.93;;;;;;;-145.18;100.00;46638.91;5072749;28;20455;-64
2023/07/26 00:55:58;;;;;;;2.97;2.17;;;;;;;-145.18;100.00;46648.69;5072149;28;20495;-64
2023/07/26 00:58:23;;;;;;;3.77;2.33;;;;;;;-145.18;100.00;46644.78;5072887;28;20036;-64
2023/07/26 01:00:50;;;;;;;3.47;2.27;;;;;;;-145.18;100.00;46646.72;5073632;28;20028;-64
2023/07/26 01:03:15;;;;;;;4.27;2.43;;;;;;;-145.18;100.00;46644.78;5074040;28;20404;-64
2023/07/26 01:06:17;;;;;;;3.77;2.30;;;;;;;-145.18;100.00;46648.69;5073627;28;20036;-64
2023/07/26 01:09:09;;;;;;;2.73;2.17;;;;;;;-145.18;100.00;46646.72;5073237;28;20035;-64
2023/07/26 01:11:44;;;;;;;4.27;2.27;;;;;;;-145.18;100.00;46648.69;5047007;28;20047;-64
2023/07/26 01:14:21;;;;;;;4.38;2.53;;;;;;;-145.18;100.00;46644.78;5073194;28;20522;-64
2023/07/26 01:16:46;;;;;;;3.10;2.13;;;;;;;-145.18;100.00;46648.69;5073559;28;20655;-64
2023/07/26 01:19:12;;;;;;;3.90;2.00;;;;;;;-145.18;100.00;46648.69;5073405;28;20020;-64
2023/07/26 01:21:37;;;;;;;2.67;2.20;;;;;;;-145.18;100.00;46650.63;5072208;28;20506;-64
2023/07/26 01:24:03;;;;;;;4.00;2.30;;;;;;;-145.18;100.00;46644.78;5073431;28;20539;-64
2023/07/26 01:26:29;;;;;;;2.63;2.00;;;;;;;-145.18;100.00;46650.63;5073484;28;20036;-64
2023/07/26 01:28:54;;;;;;;4.63;2.33;;;;;;;-145.18;100.00;46644.78;5072665;28;20036;-64
2023/07/26 01:31:23;;;;;;;4.00;2.10;;;;;;;-145.18;100.00;46648.69;5073594;28;20029;-64
2023/07/26 01:33:51;;;;;;;3.10;2.40;;;;;;;-145.18;100.00;46648.69;5073046;28;20064;-64
2023/07/26 01:36:20;;;;;;;4.00;2.00;;;;;;;-145.18;100.00;46646.72;5073603;28;20025;-64
2023/07/26 01:38:46;;;;;;;4.00;2.27;;;;;;;-145.18;100.00;46644.78;5070807;28;20078;-64
2023/07/26 01:41:12;;;;;;;3.20;2.00;;;;;;;-145.18;100.00;46648.69;5073258;28;20059;-63
2023/07/26 01:43:37;;;;;;;3.07;2.57;;;;;;;-145.18;100.00;46648.69;5072804;28;20563;-64
2023/07/26 01:46:03;;;;;;;3.90;2.30;;;;;;;-145.18;100.00;46650.63;5072858;28;20119;-63
2023/07/26 01:48:28;;;;;;;4.27;2.67;;;;;;;-145.18;100.00;46650.63;5073094;28;20017;-63
2023/07/26 01:50:53;;;;;;;4.20;2.43;;;;;;;-145.18;100.00;46650.63;5073183;28;20621;-64
2023/07/26 01:53:19;;;;;;;3.97;2.67;;;;;;;-145.18;100.00;46650.63;5071673;28;20066;-64
2023/07/26 01:55:44;;;;;;;4.10;2.80;;;;;;;-145.18;100.00;46648.69;5072831;28;20028;-64
2023/07/26 01:58:10;;;;;;;5.20;3.30;;;;;;;-145.18;100.00;46650.63;5072891;28;20025;-63
2023/07/26 02:00:35;;;;;;;3.80;2.90;;;;;;;-145.18;100.00;46648.69;5071507;28;20226;-63
2023/07/26 02:03:00;;;;;;;5.40;3.07;;;;;;;-145.18;100.00;46650.63;5072823;28;20052;-63
2023/07/26 02:05:26;;;;;;;5.33;3.33;;;;;;;-145.18;100.00;46650.63;5070735;28;20611;-64
2023/07/26 02:07:52;;;;;;;5.90;3.53;;;;;;;-145.18;100.00;46654.53;5071311;28;20032;-68
2023/07/26 02:10:17;;;;;;;5.33;4.20;;;;;;;-145.18;100.00;46650.63;5072571;28;20081;-67
2023/07/26 02:12:43;;;;;;;5.97;3.77;;;;;;;-145.18;100.00;46644.78;5072424;28;20031;-68
2023/07/26 02:15:08;;;;;;;6.03;3.90;;;;;;;-145.18;100.00;46654.53;5072588;28;20119;-68
2023/07/26 02:17:34;;;;;;;4.37;3.47;;;;;;;-145.18;100.00;46654.53;5072357;28;20097;-67
2023/07/26 02:20:00;;;;;;;4.90;3.87;;;;;;;-145.18;100.00;46644.78;5072799;28;20036;-67
2023/07/26 02:22:25;;;;;;;7.53;4.10;;;;;;;-145.18;100.00;46654.53;5071021;28;20087;-68
2023/07/26 02:24:50;;;;;;;7.70;4.77;;;;;;;-145.18;100.00;46652.59;5071147;28;20036;-67
2023/07/26 02:27:16;;;;;;;5.30;4.00;;;;;;;-145.18;100.00;46648.69;5070835;28;20077;-68
2023/07/26 02:29:42;;;;;;;4.07;3.30;;;;;;;-145.18;100.00;46652.59;5072456;28;20476;-68
2023/07/26 02:32:07;;;;;;;5.67;4.00;;;;;;;-145.18;100.00;46650.63;5072084;28;20024;-68
2023/07/26 02:34:33;;;;;;;9.03;4.00;;;;;;;-145.18;100.00;46648.69;5072001;28;20080;-67
2023/07/26 02:36:59;;;;;;;6.70;4.10;;;;;;;-145.18;100.00;46648.69;5072428;28;20033;-67
2023/07/26 02:39:24;;;;;;;6.77;4.53;;;;;;;-145.18;100.00;46648.69;5059926;28;20552;-67
2023/07/26 02:41:49;;;;;;;7.23;4.87;;;;;;;-145.18;100.00;46646.72;5070809;28;20031;-68
2023/07/26 02:44:15;;;;;;;5.90;3.87;;;;;;;-145.18;100.00;46652.59;5072068;28;20020;-68
2023/07/26 02:46:40;;;;;;;5.13;3.90;;;;;;;-145.18;100.00;46650.63;5070430;28;20499;-68
2023/07/26 02:49:06;;;;;;;5.67;3.97;;;;;;;-145.18;100.00;46654.53;5070644;28;20035;-68
2023/07/26 02:51:31;;;;;;;5.83;3.80;;;;;;;-145.18;100.00;46652.59;5071930;28;20091;-68
2023/07/26 02:53:56;;;;;;;6.17;4.17;;;;;;;-145.18;100.00;46652.59;5070126;28;20025;-68
2023/07/26 02:56:22;;;;;;;6.73;3.93;;;;;;;-145.18;100.00;46646.72;5071519;28;20056;-68
2023/07/26 02:58:47;;;;;;;7.27;4.77;;;;;;;-145.18;100.00;46650.63;5071635;28;20030;-68
2023/07/26 03:01:12;;;;;;;7.40;4.33;;;;;;;-145.18;100.00;46656.50;5071440;28;20036;-68
2023/07/26 03:03:38;;;;;;;5.20;3.73;;;;;;;-145.18;100.00;46648.69;5071611;28;20143;-68
2023/07/26 03:06:03;;;;;;;7.17;4.07;;;;;;;-145.18;100.00;46648.69;5070050;28;20023;-68
2023/07/26 03:08:29;;;;;;;8.73;4.10;;;;;;;-145.18;100.00;46652.59;5071724;28;20056;-68
2023/07/26 03:10:54;;;;;;;9.23;4.23;;;;;;;-145.18;100.00;46656.50;5071134;28;20416;-68
2023/07/26 03:13:19;;;;;;;5.70;4.50;;;;;;;-145.18;100.00;46650.63;5071327;28;20025;-68
2023/07/26 03:15:45;;;;;;;6.23;4.20;;;;;;;-145.18;100.00;46654.53;5071153;28;20044;-68
2023/07/26 03:18:10;;;;;;;5.10;3.90;;;;;;;-145.18;100.00;46646.72;5071738;28;20025;-63
2023/07/26 03:20:36;;;;;;;5.73;3.83;;;;;;;-145.18;100.00;46650.63;5071350;28;20587;-63
2023/07/26 03:23:01;;;;;;;4.90;4.03;;;;;;;-145.18;100.00;46648.69;5071173;28;20036;-64
2023/07/26 03:25:27;;;;;;;5.30;4.13;;;;;;;-145.18;100.00;46658.44;5071335;28;20103;-63
2023/07/26 03:27:53;;;;;;;5.70;4.20;;;;;;;-145.18;100.00;46646.72;5070544;28;20033;-63
2023/07/26 03:30:18;;;;;;;6.07;4.63;;;;;;;-145.18;100.00;46654.53;5071115;28;20119;-63
2023/07/26 03:32:43;;;;;;;5.80;3.97;;;;;;;-145.18;100.00;46652.59;5069886;28;20116;-64
2023/07/26 03:35:09;;;;;;;6.50;4.43;;;;;;;-145.18;100.00;46644.78;5069246;28;20181;-63
2023/07/26 03:37:34;;;;;;;5.20;3.90;;;;;;;-145.18;100.00;46654.53;5070839;28;20024;-63
2023/07/26 03:39:59;;;;;;;7.13;3.83;;;;;;;-145.18;100.00;46650.63;5071061;28;20035;-63
2023/07/26 03:42:25;;;;;;;6.07;4.17;;;;;;;-145.18;100.00;46656.50;5071100;28;20120;-64
2023/07/26 03:44:50;;;;;;;7.17;4.00;;;;;;;-145.18;100.00;46656.50;5070970;28;20443;-64
2023/07/26 03:47:16;;;;;;;5.33;3.37;;;;;;;-145.18;100.00;46646.72;5069534;28;20051;-64
2023/07/26 03:49:41;;;;;;;7.37;4.17;;;;;;;-145.18;100.00;46656.50;5070856;28;20570;-63
2023/07/26 03:52:07;;;;;;;7.83;4.37;;;;;;;-145.18;100.00;46652.59;5069446;28;20028;-63
2023/07/26 03:54:33;;;;;;;6.13;3.90;;;;;;;-145.18;100.00;46648.69;5070667;28;20043;-64
2023/07/26 03:56:58;;;;;;;9.23;3.90;;;;;;;-145.18;100.00;46652.59;5070495;28;20484;-63
2023/07/26 03:59:23;;;;;;;9.87;4.00;;;;;;;-145.18;100.00;46654.53;5070341;28;20017;-64
2023/07/26 04:01:49;;;;;;;6.03;4.10;;;;;;;-145.18;100.00;46652.59;5070859;28;20029;-63
2023/07/26 04:04:14;;;;;;;6.00;3.83;;;;;;;-145.18;100.00;46652.59;5070250;28;20063;-63
2023/07/26 04:06:40;;;;;;;5.33;3.70;;;;;;;-145.18;100.00;46650.63;5070612;28;20025;-64
2023/07/26 04:09:05;;;;;;;10.60;4.50;;;;;;;-145.18;100.00;46654.53;5068700;28;20141;-63
2023/07/26 04:11:30;;;;;;;9.67;4.20;;;;;;;-145.18;100.00;46652.59;5069231;28;20034;-63
2023/07/26 04:13:56;;;;;;;6.77;3.80;;;;;;;-145.18;100.00;46650.63;5070002;28;20036;-63
2023/07/26 04:16:22;;;;;;;5.43;3.93;;;;;;;-145.18;100.00;46654.53;5070688;28;20107;-63
2023/07/26 04:18:47;;;;;;;5.90;4.30;;;;;;;-145.18;100.00;46652.59;5068847;28;20012;-63
2023/07/26 04:21:14;;;;;;;8.13;3.90;;;;;;;-145.18;100.00;46648.69;5068944;28;20033;-64
2023/07/26 04:23:40;;;;;;;6.93;4.23;;;;;;;-145.18;100.00;46652.59;5070334;28;20054;-63
2023/07/26 04:26:06;;;;;;;5.87;4.50;;;;;;;-145.18;100.00;46650.63;5070153;28;20718;-64
2023/07/26 04:28:31;;;;;;;6.83;4.10;;;;;;;-145.18;100.00;46648.69;5069094;28;20056;-68
2023/07/26 04:30:57;;;;;;;6.30;4.70;;;;;;;-145.18;100.00;46656.50;5070394;28;20056;-68
2023/07/26 04:33:22;;;;;;;7.27;4.70;;;;;;;-145.18;100.00;46656.50;5070125;28;20032;-69
2023/07/26 04:35:48;;;;;;;7.30;4.43;;;;;;;-145.18;100.00;46652.59;5069910;28;20064;-68
2023/07/26 04:38:13;;;;;;;8.13;4.33;;;;;;;-145.18;100.00;46652.59;5070358;28;20024;-68
2023/07/26 04:40:39;;;;;;;10.20;4.90;;;;;;;-145.18;100.00;46650.63;5068908;28;20054;-68
2023/07/26 04:43:04;;;;;;;11.80;5.67;;;;;;;-145.18;100.00;46648.69;5069961;28;20060;-68
2023/07/26 04:45:30;;;;;;;8.63;5.40;;;;;;;-145.18;100.00;46654.53;5068736;28;20090;-68
2023/07/26 04:47:56;;;;;;;7.63;4.93;;;;;;;-145.18;100.00;46644.78;5068959;28;20036;-68
2023/07/26 04:50:21;;;;;;;10.23;5.63;;;;;;;-145.18;100.00;46648.69;5068885;28;20032;-68
2023/07/26 04:52:46;;;;;;;10.27;6.40;;;;;;;-145.18;100.00;46652.59;5069928;28;20028;-69
2023/07/26 04:55:12;;;;;;;8.80;5.33;;;;;;;-145.18;100.00;46656.50;5070298;28;20031;-68
2023/07/26 04:57:39;;;;;;;9.70;6.03;;;;;;;-145.18;100.00;46648.69;5070014;28;20033;-68
2023/07/26 05:00:06;;;;;;;10.67;6.00;;;;;;;-145.18;100.00;46646.72;5069941;28;20044;-69
2023/07/26 05:02:32;;;;;;;9.53;6.70;;;;;;;-145.18;100.00;46652.59;5069872;28;20040;-69
2023/07/26 05:04:57;;;;;;;12.97;6.20;;;;;;;-145.18;100.00;46650.63;5069927;28;20055;-68
2023/07/26 05:07:22;;;;;;;12.53;7.10;;;;;;;-145.18;100.00;46646.72;5067368;28;20036;-68
2023/07/26 05:09:48;;;;;;;11.20;6.20;;;;;;;-145.18;100.00;46646.72;5059062;28;20037;-68
2023/07/26 05:12:13;;;;;;;16.77;7.77;;;;;;;-145.18;100.00;46648.69;5068012;28;20535;-69
2023/07/26 05:14:41;;;;;;;15.63;7.60;;;;;;;-145.18;100.00;46650.63;5068455;28;20032;-69
2023/07/26 05:17:06;;;;;;;11.70;7.70;;;;;;;-145.18;100.00;46650.63;5069675;28;20111;-68
2023/07/26 05:19:32;;;;;;;11.23;7.23;;;;;;;-145.18;100.00;46650.63;5069944;28;20115;-69
2023/07/26 05:21:57;;;;;;;11.33;7.70;;;;;;;-145.18;100.00;46646.72;5068365;28;20569;-69
2023/07/26 05:24:23;;;;;;;11.67;7.60;;;;;;;-145.18;100.00;46642.81;5069806;28;20078;-68
2023/07/26 05:26:48;;;;;;;13.97;7.87;;;;;;;-145.18;100.00;46644.78;5068103;28;20032;-68
2023/07/26 05:29:13;;;;;;;11.83;8.03;;;;;;;-145.18;100.00;46640.88;5069525;28;20025;-68
2023/07/26 05:31:39;;;;;;;15.73;8.13;;;;;;;-145.18;100.00;46646.72;5069780;28;20024;-69
2023/07/26 05:34:04;;;;;;;13.17;8.17;;;;;;;-145.18;100.00;46640.88;5069727;28;20071;-68
2023/07/26 05:36:30;;;;;;;18.43;9.33;;;;;;;-145.18;100.00;46644.78;5069557;28;20077;-68
2023/07/26 05:38:55;;;;;;;16.83;8.80;;;;;;;-145.18;100.00;46640.88;5069810;28;20391;-68
2023/07/26 05:41:21;;;;;;;16.70;9.27;;;;;;;-145.18;100.00;46640.88;5071594;28;20029;-68
2023/07/26 05:43:46;;;;;;;17.67;8.93;;;;;;;-145.18;100.00;46640.88;5073208;28;20496;-68
2023/07/26 05:46:12;;;;;;;12.57;8.57;;;;;;;-145.18;100.00;46636.94;5072693;28;20031;-68
2023/07/26 05:48:37;;;;;;;15.23;9.03;;;;;;;-145.18;100.00;46636.94;5073143;28;20033;-69
2023/07/26 05:51:03;;;;;;;16.20;9.40;;;;;;;-145.18;100.00;46631.09;5072875;28;20039;-68
2023/07/26 05:53:28;;;;;;;15.93;9.43;;;;;;;-145.18;100.00;46627.19;5073325;28;20552;-68
2023/07/26 05:55:54;;;;;;;17.93;9.43;;;;;;;-145.18;100.00;46633.06;5072975;28;20029;-68
2023/07/26 05:58:19;;;;;;;18.90;9.40;;;;;;;-145.18;100.00;46635.00;5073046;28;20419;-68
2023/07/26 06:00:45;;;;;;;16.37;9.70;;;;;;;-145.18;100.00;46629.13;5072497;28;20020;-66
2023/07/26 06:03:10;;;;;;;15.73;9.90;;;;;;;-145.18;100.00;46636.94;5073113;28;20031;-69
2023/07/26 06:05:35;;;;;;;23.00;10.33;;;;;;;-145.18;100.00;46635.00;5072507;28;20124;-69
2023/07/26 06:08:01;;;;;;;16.27;10.13;;;;;;;-145.18;100.00;46636.94;5073010;28;20037;-69
2023/07/26 06:10:26;;;;;;;21.77;9.90;;;;;;;-145.18;100.00;46636.94;5072754;28;20035;-71
2023/07/26 06:12:52;;;;;;;15.90;9.50;;;;;;;-145.18;100.00;46636.94;5072615;28;20036;-73
2023/07/26 06:15:17;;;;;;;14.17;9.37;;;;;;;-145.18;100.00;46640.88;5071336;28;20025;-73
2023/07/26 06:17:43;;;;;;;20.63;9.90;;;;;;;-145.18;100.00;46642.81;5071356;28;20051;-72
2023/07/26 06:20:10;;;;;;;14.90;9.07;;;;;;;-145.18;100.00;46638.91;5072357;28;20028;-75
2023/07/26 06:22:36;;;;;;;17.90;7.57;;;;;;;-145.18;100.00;46633.06;5072403;28;20036;-72
2023/07/26 06:25:02;;;;;;;13.50;6.27;;;;;;;-145.18;100.00;46638.91;5072348;28;20037;-71
2023/07/26 06:27:30;;;;;;;8.20;4.40;;;;;;;-145.18;100.00;46636.94;5071836;28;20052;-71
2023/07/26 06:29:57;;;;;;;5.20;2.43;;;;;;;-145.18;100.00;46642.81;5072244;28;20426;-71
2023/07/26 06:32:22;;;;;;;2.87;1.70;;;;;;;-145.18;100.00;46644.78;5072255;28;20028;-71
2023/07/26 06:34:48;;;;;;;2.87;1.73;;;;;;;-145.18;100.00;46646.72;5072123;28;20087;-71
2023/07/26 06:37:13;;;;;;;5.60;2.10;;;;;;;-145.18;100.00;46646.72;5072680;28;20032;-71
2023/07/26 06:39:39;;;;;;;3.07;1.77;;;;;;;-145.18;100.00;46646.72;5072082;28;20032;-72
2023/07/26 06:42:05;;;;;;;3.90;2.33;;;;;;;-145.18;100.00;46644.78;5072193;28;20089;-71
2023/07/26 06:44:30;;;;;;;4.40;2.40;;;;;;;-145.18;100.00;46646.72;5070735;28;20036;-71
2023/07/26 06:46:55;;;;;;;4.67;3.00;;;;;;;-145.18;100.00;46644.78;5070643;28;20027;-71
2023/07/26 06:49:21;;;;;;;7.93;3.40;;;;;;;-145.18;100.00;46644.78;5071633;28;20396;-64
2023/07/26 06:51:46;;;;;;;8.73;4.13;;;;;;;-145.18;100.00;46640.88;5070326;28;20021;-64
2023/07/26 06:54:11;;;;;;;6.83;5.13;;;;;;;-145.18;100.00;46642.81;5071845;28;20056;-63
2023/07/26 06:56:37;;;;;;;8.47;4.97;;;;;;;-145.18;100.00;46642.81;5070659;28;20024;-64
2023/07/26 06:59:08;;;;;;;9.33;5.57;;;;;;;-145.18;100.00;46642.81;5071752;28;20796;-64
2023/07/26 07:01:34;;;;;;;10.97;5.90;;;;;;;-145.18;100.00;46646.72;5070425;28;20036;-64
2023/07/26 07:03:59;;;;;;;10.63;5.77;;;;;;;-145.18;100.00;46644.78;5070433;28;20077;-64
2023/07/26 07:06:24;;;;;;;11.67;6.50;;;;;;;-145.18;100.00;46644.78;5071787;28;20025;-63
2023/07/26 07:08:50;;;;;;;14.17;5.60;;;;;;;-145.18;100.00;46644.78;5070110;28;20476;-63
2023/07/26 07:11:15;;;;;;;12.97;6.77;;;;;;;-145.18;100.00;46636.94;5071803;28;20108;-63
2023/07/26 07:13:40;;;;;;;11.50;6.20;;;;;;;-145.18;100.00;46640.88;5071708;28;20430;-63
2023/07/26 07:16:06;;;;;;;12.10;5.93;;;;;;;-145.18;100.00;46638.91;5071566;28;20024;-63
2023/07/26 07:18:32;;;;;;;10.93;5.77;;;;;;;-145.18;100.00;46644.78;5069783;28;20453;-64
2023/07/26 07:21:00;;;;;;;10.47;6.33;;;;;;;-145.18;100.00;46638.91;5071126;28;20020;-63
2023/07/26 07:23:25;;;;;;;11.13;6.83;;;;;;;-145.18;100.00;46638.91;5071160;28;20024;-63
2023/07/26 07:25:51;;;;;;;11.73;7.00;;;;;;;-145.18;100.00;46636.94;5070049;28;20485;-64
2023/07/26 07:28:16;;;;;;;11.60;6.30;;;;;;;-145.18;100.00;46640.88;5070967;28;20105;-64
2023/07/26 07:30:42;;;;;;;10.67;6.30;;;;;;;-145.18;100.00;46635.00;5069998;28;20323;-64
2023/07/26 07:33:07;;;;;;;11.50;6.17;;;;;;;-145.18;100.00;46640.88;5070991;28;20063;-64
2023/07/26 07:35:33;;;;;;;14.60;6.87;;;;;;;-145.18;100.00;46640.88;5070501;28;20060;-63
2023/07/26 07:37:58;;;;;;;11.43;6.30;;;;;;;-145.18;100.00;46642.81;5070579;28;20050;-64
2023/07/26 07:40:23;;;;;;;10.17;5.87;;;;;;;-145.18;100.00;46644.78;5070918;28;20052;-63
2023/07/26 07:42:49;;;;;;;12.90;6.33;;;;;;;-145.18;100.00;46644.78;5070416;28;20032;-64
2023/07/26 07:45:14;;;;;;;10.87;6.10;;;;;;;-145.18;100.00;46638.91;5070859;28;20135;-64
2023/07/26 07:47:40;;;;;;;9.13;6.53;;;;;;;-145.18;100.00;46640.88;5057103;28;20392;-63
2023/07/26 07:50:06;;;;;;;11.80;5.47;;;;;;;-145.18;100.00;46642.81;5070729;28;20430;-64
2023/07/26 07:52:32;;;;;;;10.50;5.43;;;;;;;-145.18;100.00;46642.81;5070318;28;20034;-63
2023/07/26 07:54:57;;;;;;;9.63;6.00;;;;;;;-145.18;100.00;46646.72;5070732;28;20016;-63
2023/07/26 07:57:23;;;;;;;10.67;5.70;;;;;;;-145.18;100.00;46648.69;5070383;28;20051;-63
2023/07/26 07:59:48;;;;;;;9.13;5.47;;;;;;;-145.18;100.00;46660.41;5070634;28;20119;-71
2023/07/26 08:02:14;;;;;;;8.50;4.97;;;;;;;-145.18;100.00;46654.53;5069858;28;20028;-70
2023/07/26 08:04:39;;;;;;;11.03;5.33;;;;;;;-145.18;100.00;46662.34;5070324;28;20025;-70
2023/07/26 08:07:05;;;;;;;7.87;5.20;;;;;;;-145.18;100.00;46664.31;5070404;28;20029;-70
2023/07/26 08:09:30;;;;;;;6.60;4.07;;;;;;;-145.18;100.00;46664.31;5069811;28;20029;-70
2023/07/26 08:11:56;;;;;;;9.27;4.10;;;;;;;-145.18;100.00;46668.22;5069300;28;20035;-70
2023/07/26 08:14:22;;;;;;;6.80;3.03;;;;;;;-145.18;100.00;46672.13;5070345;28;20098;-70
2023/07/26 08:16:47;;;;;;;5.87;3.50;;;;;;;-145.18;100.00;46668.22;5070468;28;20044;-70
2023/07/26 08:19:13;;;;;;;12.23;3.70;;;;;;;-145.18;100.00;46674.06;5069825;28;20032;-70
2023/07/26 08:21:38;;;;;;;6.40;3.57;;;;;;;-145.18;100.00;46677.97;5070530;28;20047;-71
2023/07/26 08:24:04;;;;;;;6.27;3.40;;;;;;;-145.18;100.00;46668.22;5070173;28;20111;-70
2023/07/26 08:26:29;;;;;;;7.43;3.57;;;;;;;-145.18;100.00;46672.13;5068685;28;20539;-70
2023/07/26 08:28:54;;;;;;;8.53;3.77;;;;;;;-145.18;100.00;46670.16;5069868;28;20044;-70
2023/07/26 08:31:20;;;;;;;8.23;4.20;;;;;;;-145.18;100.00;46670.16;5070364;28;20493;-70
2023/07/26 08:33:45;;;;;;;9.10;4.37;;;;;;;-145.18;100.00;46666.25;5069983;28;20025;-70
2023/07/26 08:36:11;;;;;;;9.07;4.20;;;;;;;-145.18;100.00;46666.25;5070237;28;20121;-70
2023/07/26 08:38:36;;;;;;;11.23;4.70;;;;;;;-145.18;100.00;46668.22;5069795;28;20472;-70
2023/07/26 08:41:02;;;;;;;10.83;4.73;;;;;;;-145.18;100.00;46664.31;5069699;28;20029;-70
2023/07/26 08:43:31;;;;;;;6.17;4.40;;;;;;;-145.18;100.00;46660.41;5070121;28;20120;-70
2023/07/26 08:45:59;;;;;;;10.83;4.50;;;;;;;-145.18;100.00;46668.22;5069705;28;20604;-70
2023/07/26 08:48:26;;;;;;;8.00;4.07;;;;;;;-145.18;100.00;46666.25;5069771;28;20028;-70
2023/07/26 08:50:52;;;;;;;9.17;4.50;;;;;;;-145.18;100.00;46666.25;5069736;28;20070;-70
2023/07/26 08:53:18;;;;;;;8.13;3.50;;;;;;;-145.18;100.00;46668.22;5069998;28;20064;-71
2023/07/26 08:55:44;;;;;;;11.50;3.53;;;;;;;-145.18;100.00;46670.16;5070217;28;20098;-70
2023/07/26 08:58:10;;;;;;;10.53;3.83;;;;;;;-145.18;100.00;46670.16;5068550;28;20024;-70
2023/07/26 09:00:36;;;;;;;7.60;3.60;;;;;;;-145.18;100.00;46674.06;5069712;28;20631;-70
2023/07/26 09:03:02;;;;;;;6.23;3.17;;;;;;;-145.18;100.00;46666.25;5070031;28;20063;-70
2023/07/26 09:05:28;;;;;;;6.27;3.17;;;;;;;-145.18;100.00;46668.22;5070208;28;20029;-70
2023/07/26 09:07:54;;;;;;;5.93;4.07;;;;;;;-145.18;100.00;46664.31;5068279;28;20487;-70
2023/07/26 09:10:30;;;;;;;6.83;2.97;;;;;;;-145.18;100.00;46677.97;5069429;28;20083;-64
2023/07/26 09:13:15;;;;;;;6.90;3.83;;;;;;;-145.18;100.00;46681.88;5058918;28;20479;-64
2023/07/26 09:15:42;;;;;;;8.03;3.50;;;;;;;-145.18;100.00;46584.22;5073659;28;20016;-63
2023/07/26 09:18:09;;;;;;;5.60;2.50;;;;;;;-145.18;100.00;46552.97;5073245;28;20021;-64
2023/07/26 09:20:36;;;;;;;4.77;2.50;;;;;;;-145.18;100.00;46560.78;5073244;28;20710;-63
2023/07/26 09:23:09;;;;;;;7.63;2.87;;;;;;;-145.18;100.00;46570.53;5073684;28;20025;-64
2023/07/26 09:25:45;;;;;;;5.43;2.60;;;;;;;-145.18;100.00;46574.44;5073373;28;20107;-63
2023/07/26 09:28:13;;;;;;;4.30;2.35;;;;;;;-145.18;100.00;46578.34;5073337;28;20029;-64
2023/07/26 09:30:41;;;;;;;4.43;2.70;;;;;;;-145.18;100.00;46566.63;5072112;28;20036;-64
2023/07/26 09:33:09;;;;;;;7.40;2.97;;;;;;;-145.18;100.00;46574.44;5073146;28;20029;-63
2023/07/26 09:35:44;;;;;;;6.70;3.00;;;;;;;-145.18;100.00;46570.53;5073035;28;20052;-63
2023/07/26 09:38:14;;;;;;;;;;;;;;;-145.18;100.00;46560.78;5073428;28;20157;-63
2023/07/26 09:40:39;;;;;;;5.10;2.60;;;;;;;-145.18;100.00;46556.88;5072889;28;19908;-63
2023/07/26 09:43:05;;;;;;;9.00;3.20;;;;;;;-145.18;100.00;46551.00;5071325;28;20146;-64
2023/07/26 09:45:31;;;;;;;6.10;3.47;;;;;;;-145.18;100.00;46552.97;5073279;28;20094;-64
2023/07/26 09:48:14;;;;;;;4.57;2.50;;;;;;;-145.18;100.00;46554.91;5072428;28;20025;-64
2023/07/26 09:50:41;;;;;;;7.57;2.90;;;;;;;-145.18;100.00;46560.78;5073090;28;20020;-64
2023/07/26 09:53:07;;;;;;;5.07;2.80;;;;;;;-145.18;100.00;46568.59;5072697;28;20407;-64
2023/07/26 09:55:33;;;;;;;7.97;3.67;;;;;;;-145.18;100.00;46558.81;5072769;28;20039;-64
2023/07/26 09:58:00;;;;;;;7.20;3.07;;;;;;;-145.18;100.00;46572.50;5073008;28;20051;-64
2023/07/26 10:00:28;;;;;;;3.60;2.47;;;;;;;-145.18;100.00;46603.75;5072797;28;20443;-64
2023/07/26 10:03:03;;;;;;;6.87;2.57;;;;;;;-145.18;100.00;46572.50;5072548;28;20024;-64
2023/07/26 10:05:34;;;;;;;5.65;2.85;;;;;;;-145.18;100.00;46668.22;5072360;28;20033;-64
2023/07/26 10:08:00;;;;;;;6.03;3.00;;;;;;;-145.18;100.00;46636.94;5072835;28;20033;-64
2023/07/26 10:10:27;;;;;;;5.10;2.73;;;;;;;-145.18;100.00;46652.59;5071355;28;20028;-63
2023/07/26 10:12:57;;;;;;;5.90;2.90;;;;;;;-145.18;100.00;46654.53;5072724;28;20028;-63
2023/07/26 10:15:24;;;;;;;6.17;2.70;;;;;;;-145.18;100.00;46636.94;5072090;28;20480;-63
2023/07/26 10:17:52;;;;;;;4.83;2.83;;;;;;;-145.18;100.00;46652.59;5072642;28;20020;-63
2023/07/26 10:20:17;;;;;;;5.97;2.53;;;;;;;-145.18;100.00;46631.09;5072447;28;20112;-63
2023/07/26 10:22:43;;;;;;;6.03;2.67;;;;;;;-145.18;100.00;46625.22;5072295;28;20119;-63
2023/07/26 10:25:10;;;;;;;4.83;3.00;;;;;;;-145.18;100.00;46617.41;5070430;28;20024;-63
2023/07/26 10:27:37;;;;;;;12.40;2.87;;;;;;;-145.18;100.00;46609.59;5072431;28;20025;-64
2023/07/26 10:30:03;;;;;;;5.10;2.97;;;;;;;-145.18;100.00;46615.47;5070933;28;20024;-64
2023/07/26 10:32:29;;;;;;;5.67;3.33;;;;;;;-145.18;100.00;46566.63;5072308;28;20016;-64
2023/07/26 10:34:56;;;;;;;4.37;2.37;;;;;;;-145.18;100.00;46988.56;5071519;28;20048;-64
2023/07/26 10:37:21;;;;;;;7.87;2.27;;;;;;;-145.18;100.00;47246.44;5072123;28;20047;-64
2023/07/26 10:39:48;;;;;;;5.93;2.57;;;;;;;-145.18;100.00;47219.09;5071763;28;20029;-64
2023/07/26 10:42:25;;;;;;;3.37;2.07;;;;;;;-145.18;100.00;47133.13;5071981;28;20047;-64
2023/07/26 10:45:31;;;;;;;3.67;2.10;;;;;;;-145.18;100.00;47113.59;5071571;28;20020;-64
2023/07/26 10:47:57;;;;;;;4.57;2.45;;;;;;;-145.18;100.00;47135.09;5071347;28;20032;-64
2023/07/26 10:50:25;;;;;;;5.63;2.37;;;;;;;-145.18;100.00;47090.16;5071944;28;20361;-64
2023/07/26 10:52:50;;;;;;;4.90;2.37;;;;;;;-145.18;100.00;47109.69;5071795;28;20101;-64
2023/07/26 10:55:38;;;;;;;3.57;2.60;;;;;;;-145.18;100.00;47164.38;5071596;28;20026;-64
2023/07/26 10:58:12;;;;;;;5.23;2.33;;;;;;;-145.18;100.00;47156.56;5071404;28;20106;-63
2023/07/26 11:00:37;;;;;;;4.07;2.50;;;;;;;-145.18;100.00;47203.47;5071472;28;20709;-64
2023/07/26 11:03:03;;;;;;;5.60;2.20;;;;;;;-145.18;100.00;47191.75;5064189;28;20037;-64